EDDB/SXF METAR and TAF weather

Enter ICAO airport designator
Station Type Date Time Source
EDDB METAR 2019/06/26 21:50 UTC NOAA

EDDB 262150Z 30014KT CAVOK 25/17 Q1020 NOSIG


Station Type Date Time Source
EDDB Decoded METAR 2019/06/26 21:50 UTC NOAA

Berlin-Schoenefeld, Germany (EDDB) 52-23N 013-31E 50M
Jun 26, 2019 - 05:50 PM EDT / 2019.06.26 2150 UTC
Wind: from the WNW (300 degrees) at 16 MPH (14 KT):0
Visibility: greater than 7 mile(s):0
Temperature: 77 F (25 C)
Dew Point: 62 F (17 C)
Relative Humidity: 61%
Pressure (altimeter): 30.12 in. Hg (1020 hPa)
ob: EDDB 262150Z 30014KT CAVOK 25/17 Q1020 NOSIG
cycle: 22

Station Type Date Time Source
EDDB TAF 2019/06/26 18:27 UTC NOAA

TAF TAF EDDB 261700Z 2618/2718 30013G23KT CAVOK
BECMG 2618/2621 30007KT
BECMG 2705/2709 30012KT PROB30
TEMPO 2709/2718 30015G25KT

Example: see airport list